VOZ316 YSSY-YMHB
Flight info
| Callsign | VOZ316 |
|---|---|
| Flight time | N/A |
| Altitude | 36000 |
| Route | WOL H20 MOTRA W407 TASUM |
| Aircraft | B738/M-SDE2E3FGHIRWXY/LB1 |
Departure
| Time | 2026-04-26 02:02 |
|---|---|
| Airport | Sydney Kingsford Smith International Airport (YSSY) |
Arrival
| Time | N/A |
|---|---|
| Airport | Hobart International Airport (YMHB) |
| Time | Latitude | Longitude | Altitude | Speed | Heading |
|---|---|---|---|---|---|
| 2026-04-26 01:38 | -33.93486 | 151.17776 | 29 ft | 0 kts | 281° |
| 2026-04-26 01:54 | -33.93487 | 151.17784 | 29 ft | 4 kts | 279° |
| 2026-04-26 01:55 | -33.93488 | 151.17816 | 29 ft | 4 kts | 258° |
| 2026-04-26 01:55 | -33.93478 | 151.17843 | 29 ft | 4 kts | 217° |
| 2026-04-26 01:55 | -33.93464 | 151.17851 | 29 ft | 1 kts | 190° |
| 2026-04-26 01:55 | -33.93461 | 151.17851 | 29 ft | 0 kts | 190° |
| 2026-04-26 01:58 | -33.93479 | 151.17847 | 29 ft | 7 kts | 190° |
| 2026-04-26 01:59 | -33.93549 | 151.17832 | 29 ft | 15 kts | 190° |
| 2026-04-26 01:59 | -33.93666 | 151.17805 | 29 ft | 18 kts | 193° |
| 2026-04-26 01:59 | -33.93785 | 151.17770 | 29 ft | 17 kts | 193° |
| 2026-04-26 01:59 | -33.93914 | 151.17782 | 28 ft | 23 kts | 167° |
| 2026-04-26 02:00 | -33.94081 | 151.17826 | 28 ft | 25 kts | 168° |
| 2026-04-26 02:00 | -33.94244 | 151.17867 | 29 ft | 23 kts | 168° |
| 2026-04-26 02:00 | -33.94406 | 151.17909 | 29 ft | 25 kts | 172° |
| 2026-04-26 02:00 | -33.94573 | 151.17894 | 29 ft | 27 kts | 167° |
| 2026-04-26 02:01 | -33.94776 | 151.17947 | 29 ft | 30 kts | 168° |
| 2026-04-26 02:01 | -33.94973 | 151.17998 | 29 ft | 28 kts | 168° |
| 2026-04-26 02:01 | -33.95102 | 151.18108 | 29 ft | 17 kts | 76° |
| 2026-04-26 02:01 | -33.95082 | 151.18205 | 29 ft | 16 kts | 78° |
| 2026-04-26 02:02 | -33.95070 | 151.18272 | 29 ft | 16 kts | 77° |
| 2026-04-26 02:02 | -33.95036 | 151.18459 | 2056 ft | 191 kts | 75° |